Time;durP1;ratioP1;P1;durP2;ratioP2;P2;SDS_P1;SDS_P2;PMS_P1;PMS_P2;Temp;Humidity;BMP_temperature;BMP_pressure;BME280_temperature;BME280_humidity;BME280_pressure;Samples;Min_cycle;Max_cycle;Signal;HPM_P1;HPM_P2
2023/01/12 00:01:38;;;;;;;3.17;0.90;;;8.50;99.90;;;;;;5076893;28;20081;-93
2023/01/12 00:04:04;;;;;;;4.53;1.33;;;8.50;99.90;;;;;;5076810;28;20035;-93
2023/01/12 00:06:31;;;;;;;5.97;1.52;;;8.40;99.90;;;;;;5076022;28;20420;-93
2023/01/12 00:08:57;;;;;;;10.23;1.80;;;8.40;99.90;;;;;;5076970;28;20040;-93
2023/01/12 00:11:23;;;;;;;6.85;2.15;;;8.40;99.90;;;;;;5093196;28;20061;-93
2023/01/12 00:13:49;;;;;;;10.57;2.90;;;8.50;99.90;;;;;;5076092;28;20035;-93
2023/01/12 00:16:36;;;;;;;10.00;2.40;;;8.50;99.90;;;;;;5074042;28;20036;-94
2023/01/12 00:19:10;;;;;;;10.25;2.45;;;8.50;99.90;;;;;;5076276;28;20036;-94
2023/01/12 00:24:33;;;;;;;8.38;2.22;;;8.50;99.90;;;;;;5092828;28;20035;-94
2023/01/12 00:27:01;;;;;;;15.27;2.53;;;8.50;99.90;;;;;;5087544;28;20044;-93
2023/01/12 00:29:27;;;;;;;12.75;2.60;;;8.50;99.90;;;;;;5085434;28;20453;-93
2023/01/12 00:31:55;;;;;;;6.50;1.75;;;8.50;99.90;;;;;;5081263;28;20038;-94
2023/01/12 00:34:23;;;;;;;12.52;2.47;;;8.50;99.90;;;;;;5082880;28;20035;-93
2023/01/12 00:36:50;;;;;;;5.32;1.90;;;8.50;99.90;;;;;;5065997;28;20058;-93
2023/01/12 00:39:16;;;;;;;10.63;2.70;;;8.50;99.90;;;;;;5067371;28;20031;-93
2023/01/12 00:47:12;;;;;;;11.38;1.98;;;8.50;99.90;;;;;;5086388;28;20040;-93
2023/01/12 00:49:39;;;;;;;9.30;2.15;;;8.60;99.90;;;;;;5100507;28;20075;-93
2023/01/12 00:52:06;;;;;;;8.63;2.17;;;8.60;99.90;;;;;;5068466;28;20038;-93
2023/01/12 00:54:33;;;;;;;11.02;2.92;;;8.60;99.90;;;;;;5086341;28;20043;-93
2023/01/12 00:56:59;;;;;;;10.63;2.30;;;8.60;99.90;;;;;;5071081;28;20042;-93
2023/01/12 00:59:25;;;;;;;10.80;2.55;;;8.60;99.90;;;;;;5091399;28;20404;-94
2023/01/12 01:01:51;;;;;;;7.13;1.63;;;8.60;99.90;;;;;;5071417;28;20028;-93
2023/01/12 01:04:16;;;;;;;9.43;2.30;;;8.60;99.90;;;;;;5070492;28;20028;-93
2023/01/12 01:06:42;;;;;;;12.20;2.83;;;8.60;99.90;;;;;;5070707;28;20043;-93
2023/01/12 01:09:07;;;;;;;10.00;2.15;;;8.60;99.90;;;;;;5068816;28;20040;-93
2023/01/12 01:11:36;;;;;;;13.30;2.35;;;8.60;99.90;;;;;;5087690;28;20041;-93
2023/01/12 01:14:05;;;;;;;13.93;2.53;;;8.60;99.90;;;;;;5070056;28;20036;-93
2023/01/12 01:16:31;;;;;;;14.07;2.55;;;8.60;99.90;;;;;;5083832;28;20039;-93
2023/01/12 01:18:57;;;;;;;13.20;2.42;;;8.60;99.90;;;;;;5070134;28;20455;-94
2023/01/12 01:21:23;;;;;;;9.32;2.25;;;8.70;99.90;;;;;;5071014;28;20534;-94
2023/01/12 01:23:52;;;;;;;12.13;2.20;;;8.70;99.90;;;;;;5068636;28;20485;-93
2023/01/12 01:26:21;;;;;;;11.18;2.65;;;8.70;99.90;;;;;;5084112;28;20067;-93
2023/01/12 01:28:47;;;;;;;11.70;2.60;;;8.70;99.90;;;;;;5070048;28;20084;-94
2023/01/12 01:31:16;;;;;;;11.35;2.40;;;8.70;99.90;;;;;;5070103;28;20036;-94
2023/01/12 01:33:43;;;;;;;8.60;1.85;;;8.70;99.90;;;;;;5086950;28;20526;-94
2023/01/12 01:36:10;;;;;;;15.77;2.55;;;8.70;99.90;;;;;;5069206;28;20044;-94
2023/01/12 01:38:36;;;;;;;15.73;2.88;;;8.70;99.90;;;;;;5068280;28;20039;-93
2023/01/12 01:41:06;;;;;;;16.83;3.22;;;8.70;99.90;;;;;;5076874;28;20482;-94
2023/01/12 01:43:56;;;;;;;11.57;2.50;;;8.70;99.90;;;;;;5084075;28;20035;-93
2023/01/12 01:46:46;;;;;;;13.32;2.53;;;8.80;99.90;;;;;;5069047;28;20054;-91
2023/01/12 01:49:51;;;;;;;9.35;2.65;;;8.80;99.90;;;;;;5065425;28;20042;-92
2023/01/12 01:52:24;;;;;;;15.15;2.95;;;8.80;99.90;;;;;;4975404;28;20046;-92
2023/01/12 01:55:06;;;;;;;12.10;3.92;;;8.80;99.90;;;;;;4959261;28;20081;-92
2023/01/12 01:57:43;;;;;;;5.90;1.63;;;8.80;99.90;;;;;;4975381;28;20050;-92
2023/01/12 02:00:12;;;;;;;12.18;2.90;;;8.80;99.90;;;;;;4960249;28;20071;-92
2023/01/12 02:02:42;;;;;;;16.63;2.83;;;8.80;99.90;;;;;;4993131;28;20269;-93
2023/01/12 02:05:09;;;;;;;12.60;2.95;;;8.80;99.90;;;;;;4995384;28;20129;-93
2023/01/12 02:07:40;;;;;;;15.05;3.25;;;8.80;99.90;;;;;;4978716;28;20528;-92
2023/01/12 02:10:06;;;;;;;16.48;2.70;;;8.80;99.90;;;;;;4981497;28;20077;-92
2023/01/12 02:18:20;;;;;;;13.68;3.10;;;8.80;99.90;;;;;;4975188;28;20047;-92
2023/01/12 02:21:11;;;;;;;15.90;3.33;;;8.80;99.90;;;;;;4962725;28;20046;-92
2023/01/12 02:24:15;;;;;;;15.10;3.17;;;8.80;99.90;;;;;;4995120;28;20091;-92
2023/01/12 02:27:12;;;;;;;14.10;4.15;;;8.70;99.90;;;;;;5035480;28;20044;-92
2023/01/12 02:30:15;;;;;;;12.38;2.90;;;8.70;99.90;;;;;;5078662;28;20063;-92
2023/01/12 02:33:04;;;;;;;14.70;3.67;;;8.70;99.90;;;;;;5077608;28;20043;-91
2023/01/12 02:35:43;;;;;;;12.15;3.97;;;8.70;99.90;;;;;;5094986;28;20048;-92
2023/01/12 02:38:43;;;;;;;11.75;3.25;;;8.70;99.90;;;;;;5095280;28;20039;-92
2023/01/12 02:44:23;;;;;;;13.40;3.67;;;8.70;99.90;;;;;;5094467;28;20047;-91
2023/01/12 02:46:50;;;;;;;9.52;2.90;;;8.70;99.90;;;;;;5061527;28;20431;-91
2023/01/12 02:49:20;;;;;;;10.15;3.05;;;8.80;99.90;;;;;;5075264;28;20041;-92
2023/01/12 02:51:53;;;;;;;14.60;3.50;;;8.70;99.90;;;;;;5066566;28;20043;-92
2023/01/12 02:54:21;;;;;;;13.93;4.10;;;8.70;99.90;;;;;;5057555;28;20066;-92
2023/01/12 02:56:50;;;;;;;11.57;3.58;;;8.70;99.90;;;;;;5082346;28;20091;-92
2023/01/12 02:59:20;;;;;;;12.60;3.58;;;8.80;99.90;;;;;;5078083;28;20043;-91
2023/01/12 03:01:50;;;;;;;10.93;2.58;;;8.80;99.90;;;;;;5077494;28;20047;-92
2023/01/12 03:04:17;;;;;;;10.23;3.55;;;8.80;99.90;;;;;;5075762;28;20541;-92
2023/01/12 03:06:55;;;;;;;12.63;3.63;;;8.80;99.90;;;;;;5094462;28;20493;-92
2023/01/12 03:09:27;;;;;;;12.77;3.42;;;8.80;99.90;;;;;;5078007;28;20035;-93
2023/01/12 03:11:59;;;;;;;8.18;3.17;;;8.80;99.90;;;;;;5077886;28;20046;-92
2023/01/12 03:14:26;;;;;;;14.60;4.13;;;8.80;99.90;;;;;;5076438;28;20040;-92
2023/01/12 03:16:55;;;;;;;10.15;3.60;;;8.80;99.90;;;;;;5094489;28;20039;-92
2023/01/12 03:19:28;;;;;;;15.02;4.53;;;8.80;99.90;;;;;;5094516;28;20552;-92
2023/01/12 03:22:00;;;;;;;11.43;3.75;;;8.80;99.90;;;;;;5094839;28;20442;-91
2023/01/12 03:24:31;;;;;;;10.20;3.92;;;8.80;99.90;;;;;;5077024;28;20039;-92
2023/01/12 03:27:11;;;;;;;13.95;3.67;;;8.80;99.90;;;;;;5093831;28;20042;-92
2023/01/12 03:29:49;;;;;;;9.60;3.03;;;8.80;99.90;;;;;;5060510;28;20123;-92
2023/01/12 03:32:15;;;;;;;14.70;3.85;;;8.80;99.90;;;;;;5057533;28;20040;-92
2023/01/12 03:34:40;;;;;;;11.60;3.55;;;8.90;99.90;;;;;;5066576;28;20576;-92
2023/01/12 03:37:18;;;;;;;13.52;4.72;;;8.90;99.90;;;;;;5094020;28;20085;-92
2023/01/12 03:40:10;;;;;;;12.50;3.50;;;8.90;99.90;;;;;;5077298;28;20046;-92
2023/01/12 03:43:01;;;;;;;12.20;3.63;;;8.90;99.90;;;;;;5068126;28;20035;-92
2023/01/12 03:45:42;;;;;;;10.38;3.17;;;8.90;99.90;;;;;;5077131;28;20039;-92
2023/01/12 03:48:21;;;;;;;7.90;2.85;;;8.90;99.90;;;;;;5093777;28;20039;-92
2023/01/12 03:50:53;;;;;;;8.85;2.50;;;8.90;99.90;;;;;;5077027;28;20511;-92
2023/01/12 03:53:21;;;;;;;7.63;2.40;;;8.90;99.90;;;;;;5093420;28;20040;-92
2023/01/12 03:55:51;;;;;;;10.77;3.53;;;8.90;99.90;;;;;;5092477;28;20473;-91
2023/01/12 03:58:17;;;;;;;8.38;2.80;;;8.90;99.90;;;;;;5076451;28;20560;-92
2023/01/12 04:00:43;;;;;;;7.97;2.50;;;8.90;99.90;;;;;;5077068;28;20385;-92
2023/01/12 04:03:14;;;;;;;8.30;2.53;;;9.00;99.90;;;;;;5076913;28;20043;-91
2023/01/12 04:05:42;;;;;;;8.07;2.63;;;8.90;99.90;;;;;;5070403;28;20039;-92
2023/01/12 04:08:08;;;;;;;7.15;2.25;;;9.00;99.90;;;;;;5074468;28;20043;-92
2023/01/12 04:10:34;;;;;;;6.88;2.22;;;9.00;99.90;;;;;;5076754;28;20039;-91
2023/01/12 04:12:59;;;;;;;7.57;1.85;;;9.00;99.90;;;;;;5075830;28;20058;-92
2023/01/12 04:15:25;;;;;;;7.32;2.33;;;9.00;99.90;;;;;;5092948;28;20036;-92
2023/01/12 04:17:51;;;;;;;5.57;1.85;;;9.00;99.90;;;;;;5076942;28;20088;-92
2023/01/12 04:20:17;;;;;;;6.50;1.92;;;9.00;99.90;;;;;;5076323;28;20035;-92
2023/01/12 04:22:43;;;;;;;5.53;1.40;;;9.10;99.90;;;;;;5076391;28;20081;-92
2023/01/12 04:25:18;;;;;;;5.15;1.50;;;9.10;99.90;;;;;;5076417;28;20416;-92
2023/01/12 04:27:49;;;;;;;6.47;1.77;;;9.00;99.90;;;;;;5092717;28;20035;-92
2023/01/12 04:30:17;;;;;;;9.52;1.75;;;9.10;99.90;;;;;;5093981;28;20122;-92
2023/01/12 04:32:43;;;;;;;6.30;1.52;;;9.10;99.90;;;;;;5092842;28;20374;-92
2023/01/12 04:35:13;;;;;;;7.13;1.52;;;9.10;99.90;;;;;;5076042;28;20488;-92
2023/01/12 04:37:42;;;;;;;4.82;1.17;;;9.10;99.90;;;;;;5076569;28;20035;-92
2023/01/12 04:40:09;;;;;;;4.00;1.33;;;9.00;99.90;;;;;;5098940;28;20480;-92
2023/01/12 04:43:20;;;;;;;6.72;1.10;;;9.10;99.90;;;;;;5076723;28;20080;-92
2023/01/12 04:45:21;;;;;;;4.13;1.67;;;9.10;99.90;;;;;;5075446;28;20077;-92
2023/01/12 04:47:47;;;;;;;6.40;1.35;;;9.10;99.90;;;;;;5065344;28;20073;-93
2023/01/12 04:50:13;;;;;;;4.75;1.20;;;9.10;99.90;;;;;;5056522;28;20522;-93
2023/01/12 04:52:39;;;;;;;7.35;1.15;;;9.00;99.90;;;;;;5064308;28;20043;-92
2023/01/12 04:55:05;;;;;;;2.42;0.82;;;9.00;99.90;;;;;;5092443;28;20077;-93
2023/01/12 04:57:31;;;;;;;3.95;1.42;;;9.00;99.90;;;;;;5092679;28;20078;-92
2023/01/12 04:59:57;;;;;;;4.43;1.13;;;9.00;99.90;;;;;;5078886;28;20036;-92
2023/01/12 05:02:23;;;;;;;5.10;1.17;;;9.00;99.90;;;;;;5076467;28;20047;-93
2023/01/12 05:04:48;;;;;;;7.85;1.17;;;9.00;99.90;;;;;;5076102;28;20058;-92
2023/01/12 05:07:15;;;;;;;4.10;1.25;;;9.00;99.90;;;;;;5092792;28;20067;-93
2023/01/12 05:12:25;;;;;;;4.50;1.20;;;9.00;99.90;;;;;;5092319;28;20043;-93
2023/01/12 05:14:50;;;;;;;5.22;1.63;;;9.00;99.90;;;;;;5075621;28;20416;-92
2023/01/12 05:17:16;;;;;;;5.80;1.17;;;9.00;99.90;;;;;;5091323;28;20035;-92
2023/01/12 05:19:45;;;;;;;5.68;1.17;;;9.00;99.90;;;;;;5073354;28;20051;-92
2023/01/12 05:22:10;;;;;;;4.57;1.27;;;9.00;99.90;;;;;;5056616;28;20394;-93
2023/01/12 05:24:36;;;;;;;4.10;1.15;;;9.00;99.90;;;;;;5071904;28;20047;-89
2023/01/12 05:27:02;;;;;;;4.95;1.33;;;8.90;99.90;;;;;;5092280;28;20424;-93
2023/01/12 05:29:28;;;;;;;9.45;1.38;;;9.00;99.90;;;;;;5092774;28;20093;-93
2023/01/12 05:31:53;;;;;;;9.00;1.42;;;8.90;99.90;;;;;;5076101;28;20038;-92
2023/01/12 05:34:19;;;;;;;4.88;1.00;;;8.90;99.90;;;;;;5075270;28;20073;-92
2023/01/12 05:36:46;;;;;;;7.50;1.33;;;8.90;99.90;;;;;;5072493;28;20050;-92
2023/01/12 05:39:11;;;;;;;5.15;1.20;;;8.90;99.90;;;;;;5059441;28;20036;-92
2023/01/12 05:43:48;;;;;;;6.90;1.23;;;8.90;99.90;;;;;;5076422;28;20035;-92
2023/01/12 05:44:23;;;;;;;2.75;1.25;;;8.90;99.90;;;;;;5094923;28;20079;-92
2023/01/12 05:46:48;;;;;;;3.05;0.90;;;8.90;99.90;;;;;;5079228;28;20483;-92
2023/01/12 05:49:14;;;;;;;4.38;0.82;;;8.90;99.90;;;;;;5073272;28;20085;-92
2023/01/12 05:51:39;;;;;;;4.32;0.88;;;8.90;99.90;;;;;;5085401;28;20043;-92
2023/01/12 05:54:05;;;;;;;8.75;1.23;;;8.90;99.90;;;;;;5095363;28;20039;-92
2023/01/12 05:56:31;;;;;;;7.78;1.25;;;8.90;99.90;;;;;;5095555;28;20047;-93
2023/01/12 05:58:59;;;;;;;3.63;1.02;;;8.90;99.90;;;;;;5095568;28;20097;-92
2023/01/12 06:01:26;;;;;;;6.47;1.33;;;8.90;99.90;;;;;;5079824;28;20088;-93
2023/01/12 06:03:56;;;;;;;7.57;1.55;;;8.90;99.90;;;;;;5079271;28;20528;-93
2023/01/12 06:06:24;;;;;;;5.90;1.70;;;8.90;99.90;;;;;;5095673;28;20031;-93
2023/01/12 06:08:51;;;;;;;4.78;1.23;;;8.90;99.90;;;;;;5076734;28;20119;-93
2023/01/12 06:14:01;;;;;;;2.47;1.00;;;8.90;99.90;;;;;;5094421;28;20043;-93
2023/01/12 06:16:27;;;;;;;5.07;1.23;;;8.90;99.90;;;;;;5094677;28;20441;-93
2023/01/12 06:18:54;;;;;;;6.28;1.30;;;8.90;99.90;;;;;;5094204;28;20480;-92
2023/01/12 06:21:20;;;;;;;5.75;1.55;;;8.90;99.90;;;;;;5095545;28;20086;-93
2023/01/12 06:23:45;;;;;;;4.75;1.20;;;8.90;99.90;;;;;;5078410;28;20063;-93
2023/01/12 06:26:11;;;;;;;3.97;1.00;;;8.90;99.90;;;;;;5077813;28;20047;-93
2023/01/12 06:28:39;;;;;;;5.53;1.17;;;8.90;99.90;;;;;;5095098;28;20043;-93
2023/01/12 06:31:07;;;;;;;6.30;1.20;;;8.90;99.90;;;;;;5078095;28;20071;-93
2023/01/12 06:33:33;;;;;;;3.47;0.90;;;8.90;99.90;;;;;;5077563;28;20445;-93
2023/01/12 06:35:59;;;;;;;2.50;0.77;;;8.90;99.90;;;;;;5077697;28;20043;-93
2023/01/12 06:38:27;;;;;;;5.20;0.98;;;9.00;99.90;;;;;;5077438;28;20404;-93
2023/01/12 06:40:56;;;;;;;3.88;0.88;;;9.00;99.90;;;;;;5078254;28;20039;-94
2023/01/12 06:43:22;;;;;;;4.32;1.10;;;9.00;99.90;;;;;;5094882;28;20035;-93
2023/01/12 06:45:47;;;;;;;3.50;0.93;;;9.00;99.90;;;;;;5077941;28;20161;-93
2023/01/12 06:48:13;;;;;;;7.00;1.08;;;9.00;99.90;;;;;;5076875;28;20071;-93
2023/01/12 06:50:39;;;;;;;3.70;0.98;;;9.00;99.90;;;;;;5078068;28;20570;-94
2023/01/12 06:53:05;;;;;;;2.70;1.00;;;9.10;99.90;;;;;;5078081;28;20405;-93
2023/01/12 06:55:31;;;;;;;3.67;0.82;;;9.10;99.90;;;;;;5068314;28;20450;-93
2023/01/12 06:58:01;;;;;;;4.70;1.33;;;9.20;99.90;;;;;;5077639;28;20055;-93
2023/01/12 07:00:26;;;;;;;2.22;0.88;;;9.20;99.90;;;;;;5076891;28;20032;-93
2023/01/12 07:02:52;;;;;;;1.55;0.50;;;9.30;99.90;;;;;;5058169;28;20089;-93
2023/01/12 07:05:18;;;;;;;3.92;1.25;;;9.30;99.90;;;;;;5059239;28;20460;-94
2023/01/12 07:07:44;;;;;;;2.25;0.70;;;9.30;99.90;;;;;;5080931;28;20032;-93
2023/01/12 07:10:10;;;;;;;4.68;0.80;;;9.30;99.90;;;;;;5058119;28;20130;-94
2023/01/12 07:12:36;;;;;;;2.55;0.77;;;9.40;99.90;;;;;;5062265;28;20032;-92
2023/01/12 07:15:02;;;;;;;1.55;0.40;;;9.40;99.90;;;;;;5093771;28;20077;-93
2023/01/12 07:17:29;;;;;;;1.75;0.50;;;9.40;99.90;;;;;;5093511;28;20035;-93
2023/01/12 07:19:55;;;;;;;1.20;0.68;;;9.40;99.90;;;;;;5086637;28;20043;-94
2023/01/12 07:22:20;;;;;;;1.85;0.47;;;9.30;99.90;;;;;;5094457;28;20039;-93
2023/01/12 07:24:46;;;;;;;1.45;0.45;;;9.40;99.90;;;;;;5093798;28;20043;-92
2023/01/12 07:27:12;;;;;;;1.58;0.70;;;9.40;99.90;;;;;;5094144;28;20080;-93
2023/01/12 07:29:38;;;;;;;2.08;0.80;;;9.40;99.90;;;;;;5094511;28;20088;-93
2023/01/12 07:32:04;;;;;;;1.45;0.60;;;9.40;99.90;;;;;;5090426;28;20039;-94
2023/01/12 07:34:29;;;;;;;3.92;0.52;;;9.40;99.90;;;;;;5057290;28;20044;-93
2023/01/12 07:36:55;;;;;;;3.22;0.75;;;9.50;99.90;;;;;;5066557;28;20043;-94
2023/01/12 07:39:21;;;;;;;1.63;0.93;;;9.40;99.90;;;;;;5076807;28;20050;-94
2023/01/12 07:44:31;;;;;;;2.53;0.60;;;9.50;99.90;;;;;;5085679;28;20074;-93
2023/01/12 07:46:58;;;;;;;4.43;0.80;;;9.40;99.90;;;;;;5067819;28;20071;-92
2023/01/12 07:49:24;;;;;;;3.05;0.77;;;9.50;99.90;;;;;;5067214;28;20047;-93
2023/01/12 07:51:52;;;;;;;0.98;0.70;;;9.40;99.90;;;;;;5068378;28;20039;-93
2023/01/12 07:54:18;;;;;;;1.60;0.50;;;9.50;99.90;;;;;;5066023;28;20092;-91
2023/01/12 07:56:44;;;;;;;3.55;0.90;;;9.50;99.90;;;;;;5064456;28;20123;-93
2023/01/12 07:59:10;;;;;;;3.28;1.10;;;9.50;99.90;;;;;;5057938;28;20078;-93
2023/01/12 08:01:36;;;;;;;2.13;0.77;;;9.50;99.90;;;;;;5061400;28;20035;-93
2023/01/12 08:04:02;;;;;;;3.17;0.90;;;9.50;99.90;;;;;;5092113;28;20039;-93
2023/01/12 08:06:28;;;;;;;1.83;0.63;;;9.60;99.90;;;;;;5093514;28;20032;-93
2023/01/12 08:08:54;;;;;;;1.65;0.70;;;9.50;99.90;;;;;;5078074;28;20036;-93
2023/01/12 08:11:21;;;;;;;1.30;0.50;;;9.60;99.90;;;;;;5089912;28;20105;-93
2023/01/12 08:13:47;;;;;;;1.67;0.75;;;9.50;99.90;;;;;;5075017;28;20049;-93
2023/01/12 08:16:29;;;;;;;1.13;0.80;;;9.60;99.90;;;;;;5073093;28;20062;-92
2023/01/12 08:19:01;;;;;;;1.70;0.82;;;9.60;99.90;;;;;;5092246;28;20884;-92
2023/01/12 08:21:32;;;;;;;2.15;0.77;;;9.50;99.90;;;;;;5072816;28;20047;-92
2023/01/12 08:24:00;;;;;;;1.35;0.80;;;9.60;99.90;;;;;;5072829;28;20040;-92
2023/01/12 08:26:38;;;;;;;2.83;1.00;;;9.60;99.90;;;;;;5071508;28;20106;-93
2023/01/12 08:29:14;;;;;;;1.45;0.70;;;9.60;99.90;;;;;;5075804;28;20039;-92
2023/01/12 08:31:40;;;;;;;2.78;1.15;;;9.60;99.90;;;;;;5092861;28;20122;-93
2023/01/12 08:34:08;;;;;;;2.75;0.93;;;9.70;99.90;;;;;;5075354;28;20039;-92
2023/01/12 08:36:35;;;;;;;3.03;0.95;;;9.70;99.90;;;;;;5092744;28;20122;-93
2023/01/12 08:39:03;;;;;;;5.40;1.40;;;9.70;99.90;;;;;;5075972;28;20050;-93
2023/01/12 08:41:32;;;;;;;2.20;1.05;;;9.70;99.90;;;;;;5056999;28;20074;-93
2023/01/12 08:44:08;;;;;;;3.72;1.17;;;9.80;99.90;;;;;;5056392;28;20068;-93
2023/01/12 08:46:54;;;;;;;3.00;1.15;;;9.80;99.90;;;;;;5091453;28;20040;-93
2023/01/12 08:49:23;;;;;;;2.53;1.10;;;9.80;99.90;;;;;;5076067;28;20056;-93
2023/01/12 08:51:48;;;;;;;3.88;1.30;;;9.80;99.90;;;;;;5092864;28;20087;-93
2023/01/12 08:54:16;;;;;;;3.80;1.15;;;9.80;99.90;;;;;;5085698;28;20497;-93
2023/01/12 08:56:41;;;;;;;3.05;1.15;;;9.80;99.90;;;;;;5067163;28;20040;-93
2023/01/12 08:59:07;;;;;;;3.50;1.17;;;9.80;99.90;;;;;;5061274;28;20137;-94
2023/01/12 09:01:33;;;;;;;5.32;1.55;;;9.80;99.90;;;;;;5064794;28;20032;-93
2023/01/12 09:03:59;;;;;;;3.03;1.20;;;9.90;99.90;;;;;;5063557;28;20040;-93
2023/01/12 09:06:26;;;;;;;3.13;0.93;;;9.90;99.90;;;;;;5065337;28;20032;-93
2023/01/12 09:09:07;;;;;;;2.63;1.10;;;10.00;99.90;;;;;;5068495;28;20047;-93
2023/01/12 09:11:34;;;;;;;5.60;1.23;;;10.00;99.90;;;;;;5067862;28;20043;-93
2023/01/12 09:14:00;;;;;;;2.10;1.00;;;10.10;99.90;;;;;;5068022;28;20039;-92
2023/01/12 09:16:28;;;;;;;4.63;1.38;;;10.10;99.90;;;;;;5087875;28;20040;-93
2023/01/12 09:18:54;;;;;;;6.00;1.77;;;10.10;99.90;;;;;;5079499;28;20050;-93
2023/01/12 09:21:21;;;;;;;3.88;1.23;;;10.10;99.90;;;;;;5079030;28;20483;-93
2023/01/12 09:23:51;;;;;;;3.45;0.82;;;10.20;99.90;;;;;;5079365;28;20039;-94
2023/01/12 09:26:22;;;;;;;8.32;1.73;;;10.30;99.90;;;;;;5079507;28;20401;-94
2023/01/12 09:28:48;;;;;;;4.30;1.17;;;10.30;99.90;;;;;;5079768;28;20031;-93
2023/01/12 09:31:17;;;;;;;6.80;1.45;;;10.40;99.90;;;;;;5096979;28;20095;-94
2023/01/12 09:33:42;;;;;;;9.20;1.63;;;10.40;99.90;;;;;;5097161;28;20604;-94
2023/01/12 09:36:11;;;;;;;8.15;1.83;;;10.50;99.90;;;;;;5079146;28;20039;-93
2023/01/12 09:38:42;;;;;;;8.57;1.60;;;10.50;99.90;;;;;;5095944;28;20130;-93
2023/01/12 09:47:17;;;;;;;11.43;1.95;;;10.70;99.90;;;;;;5095534;28;20040;-93
2023/01/12 09:49:49;;;;;;;9.98;2.50;;;10.80;99.90;;;;;;5079469;28;20075;-93
2023/01/12 09:52:19;;;;;;;11.15;2.00;;;10.90;99.90;;;;;;5095280;28;20043;-92
2023/01/12 09:54:48;;;;;;;12.77;2.97;;;11.00;99.90;;;;;;5095890;28;20091;-93
2023/01/12 09:57:50;;;;;;;15.30;2.80;;;11.00;99.90;;;;;;5095384;28;20416;-93
2023/01/12 10:00:17;;;;;;;9.90;2.00;;;11.10;99.90;;;;;;5078767;28;20093;-93
2023/01/12 10:02:47;;;;;;;8.07;1.52;;;11.10;99.90;;;;;;5074873;28;20044;-94
2023/01/12 10:05:42;;;;;;;29.70;3.65;;;11.20;99.90;;;;;;5079130;28;20032;-93
2023/01/12 10:08:29;;;;;;;11.60;2.42;;;11.20;99.90;;;;;;5090519;28;20442;-91
2023/01/12 10:11:04;;;;;;;11.45;2.15;;;11.20;99.90;;;;;;5077447;28;20122;-93
2023/01/12 10:13:46;;;;;;;11.43;2.58;;;11.30;99.90;;;;;;5066597;28;20036;-91
2023/01/12 10:16:38;;;;;;;11.30;2.35;;;11.30;99.90;;;;;;5068315;28;20527;-93
2023/01/12 10:19:18;;;;;;;11.45;2.15;;;11.40;99.90;;;;;;5061649;28;20138;-93
2023/01/12 10:21:44;;;;;;;10.57;1.58;;;11.40;99.90;;;;;;5068051;28;20040;-92
2023/01/12 10:24:13;;;;;;;14.38;3.22;;;11.40;99.90;;;;;;5085182;28;20054;-92
2023/01/12 10:26:42;;;;;;;11.38;2.38;;;11.40;99.90;;;;;;5083255;28;20032;-93
2023/01/12 10:29:10;;;;;;;10.15;3.13;;;11.40;99.90;;;;;;5092086;28;20447;-94
2023/01/12 10:31:36;;;;;;;13.23;2.47;;;11.40;99.90;;;;;;5094195;28;20409;-93
2023/01/12 10:34:09;;;;;;;13.98;2.35;;;11.50;99.90;;;;;;5093568;28;20515;-93
2023/01/12 10:36:48;;;;;;;8.68;1.77;;;11.50;99.90;;;;;;5077938;28;20042;-94
2023/01/12 10:39:32;;;;;;;10.02;1.45;;;11.50;99.90;;;;;;5077496;28;20035;-92
2023/01/12 10:45:16;;;;;;;11.75;3.63;;;11.50;99.90;;;;;;5074584;28;20153;-93
2023/01/12 10:47:43;;;;;;;7.30;1.40;;;11.40;99.90;;;;;;5074722;28;20040;-93
2023/01/12 10:50:27;;;;;;;8.38;1.70;;;11.40;99.90;;;;;;5077311;28;20401;-92
2023/01/12 10:52:56;;;;;;;8.55;1.50;;;11.40;99.90;;;;;;5076814;28;20370;-92
2023/01/12 10:55:27;;;;;;;8.80;1.25;;;11.40;99.90;;;;;;5085609;28;20043;-93
2023/01/12 10:57:53;;;;;;;14.18;2.75;;;11.30;99.90;;;;;;5077560;28;20066;-93
2023/01/12 11:00:22;;;;;;;5.20;1.30;;;11.30;99.90;;;;;;5077239;28;20485;-93
2023/01/12 11:02:48;;;;;;;10.00;1.92;;;11.30;99.90;;;;;;5077490;28;20394;-92
2023/01/12 11:05:38;;;;;;;14.70;2.13;;;11.30;99.90;;;;;;5077571;28;20114;-92
2023/01/12 11:08:26;;;;;;;12.27;2.38;;;11.30;99.90;;;;;;5076966;28;20036;-93
2023/01/12 11:10:52;;;;;;;10.70;2.08;;;11.30;99.90;;;;;;5074617;28;20488;-93
2023/01/12 11:13:26;;;;;;;11.18;2.30;;;11.40;99.90;;;;;;5074093;28;20520;-93
2023/01/12 11:16:09;;;;;;;9.40;1.45;;;11.40;99.90;;;;;;5075289;28;20153;-92
2023/01/12 11:18:39;;;;;;;11.23;2.22;;;11.40;99.90;;;;;;5077404;28;20444;-93
2023/01/12 11:21:11;;;;;;;13.10;2.03;;;11.40;99.90;;;;;;5076865;28;20047;-93
2023/01/12 11:24:04;;;;;;;10.65;2.28;;;11.40;99.90;;;;;;5077232;28;20035;-92
2023/01/12 11:26:41;;;;;;;8.50;1.58;;;11.50;99.90;;;;;;5063827;28;20048;-93
2023/01/12 11:29:28;;;;;;;11.25;3.53;;;11.50;99.90;;;;;;5057356;28;20036;-92
2023/01/12 11:31:59;;;;;;;12.00;2.50;;;11.50;99.90;;;;;;5065912;28;20043;-92
2023/01/12 11:34:31;;;;;;;16.80;2.88;;;11.50;99.90;;;;;;5093234;28;20401;-92
2023/01/12 11:37:09;;;;;;;12.52;2.30;;;11.60;99.90;;;;;;5093803;28;20043;-93
2023/01/12 11:39:35;;;;;;;15.25;3.20;;;11.60;99.90;;;;;;5111171;28;20040;-94
2023/01/12 11:45:00;;;;;;;10.93;2.33;;;11.70;99.90;;;;;;5093450;28;20043;-92
2023/01/12 11:47:35;;;;;;;17.08;3.47;;;11.70;99.90;;;;;;5057014;28;20068;-93
2023/01/12 11:50:15;;;;;;;18.17;2.40;;;11.80;99.90;;;;;;5057102;28;20513;-94
2023/01/12 11:52:42;;;;;;;10.32;1.88;;;11.80;99.90;;;;;;5072469;28;20038;-93
2023/01/12 11:55:16;;;;;;;12.43;1.90;;;11.80;99.90;;;;;;5094239;28;20477;-92
2023/01/12 11:57:56;;;;;;;14.30;2.83;;;11.80;99.90;;;;;;5076260;28;20043;-93
2023/01/12 12:00:35;;;;;;;12.52;2.08;;;11.80;99.90;;;;;;5073419;28;20071;-92
2023/01/12 12:03:31;;;;;;;10.50;2.83;;;11.90;99.90;;;;;;5065120;28;20123;-92
2023/01/12 12:06:06;;;;;;;16.27;2.85;;;11.90;99.90;;;;;;5111808;28;20039;-93
2023/01/12 12:08:51;;;;;;;15.63;2.83;;;11.90;99.90;;;;;;5076400;28;20523;-93
2023/01/12 12:11:48;;;;;;;9.90;2.45;;;11.90;99.90;;;;;;5093254;28;20039;-93
2023/01/12 12:14:28;;;;;;;20.25;3.28;;;11.90;99.90;;;;;;5093477;28;20130;-93
2023/01/12 12:17:10;;;;;;;15.10;2.67;;;11.90;99.90;;;;;;5102115;28;20489;-93
2023/01/12 12:20:10;;;;;;;9.83;1.97;;;11.90;99.90;;;;;;5090344;28;20035;-93
2023/01/12 12:22:58;;;;;;;12.93;2.95;;;11.90;99.90;;;;;;5093224;28;20808;-93
2023/01/12 12:25:33;;;;;;;20.70;5.05;;;11.90;99.90;;;;;;5076942;28;20146;-93
2023/01/12 12:28:25;;;;;;;18.05;3.53;;;12.00;99.90;;;;;;5092792;28;20043;-92
2023/01/12 12:31:45;;;;;;;10.80;2.90;;;11.90;99.90;;;;;;5093301;28;20073;-93
2023/01/12 12:34:27;;;;;;;13.30;2.20;;;11.80;99.90;;;;;;4987209;28;20099;-93
2023/01/12 12:37:09;;;;;;;13.35;2.20;;;11.80;99.90;;;;;;5011951;28;20038;-93
2023/01/12 12:40:07;;;;;;;13.25;1.90;;;11.80;99.90;;;;;;5048896;28;20054;-94
2023/01/12 12:45:59;;;;;;;13.52;2.50;;;11.80;99.90;;;;;;5074129;28;20068;-94
2023/01/12 12:48:33;;;;;;;15.73;3.35;;;11.80;99.90;;;;;;5095076;28;20501;-94
2023/01/12 12:51:06;;;;;;;12.90;3.30;;;11.80;99.90;;;;;;5077565;28;20501;-93
2023/01/12 12:53:37;;;;;;;;;;;11.70;99.90;;;;;;5071156;28;20039;-94
2023/01/12 12:56:09;;;;;;;13.93;2.70;;;11.80;99.90;;;;;;5080797;28;19922;-94
2023/01/12 12:59:02;;;;;;;16.33;2.90;;;11.80;99.90;;;;;;5080556;28;20082;-93
2023/01/12 13:01:30;;;;;;;14.48;3.40;;;11.80;99.90;;;;;;4988894;28;20050;-94
2023/01/12 13:04:00;;;;;;;15.10;3.60;;;11.80;99.90;;;;;;4980646;28;20060;-93
2023/01/12 13:06:42;;;;;;;15.30;2.95;;;11.80;99.90;;;;;;4988866;28;20042;-94
2023/01/12 13:09:11;;;;;;;16.60;2.53;;;11.80;99.90;;;;;;5032715;28;20127;-94
2023/01/12 13:12:07;;;;;;;13.05;2.40;;;11.80;99.90;;;;;;4993714;28;20416;-93
2023/01/12 13:14:40;;;;;;;15.10;2.50;;;11.80;99.90;;;;;;4999903;28;20124;-94
2023/01/12 13:17:17;;;;;;;13.15;2.65;;;11.80;99.90;;;;;;4997380;28;20086;-93
2023/01/12 13:19:59;;;;;;;14.00;1.98;;;11.80;99.90;;;;;;4999271;28;20053;-94
2023/01/12 13:22:44;;;;;;;19.23;3.08;;;11.80;99.90;;;;;;4998752;28;20128;-94
2023/01/12 13:25:16;;;;;;;18.23;2.65;;;11.80;99.90;;;;;;5015787;28;20053;-94
2023/01/12 13:27:59;;;;;;;12.50;2.20;;;11.80;99.90;;;;;;5006422;28;20040;-94
2023/01/12 13:30:25;;;;;;;13.50;2.60;;;11.70;99.90;;;;;;5014972;28;20087;-94
2023/01/12 13:33:13;;;;;;;15.38;3.25;;;11.70;99.90;;;;;;5006651;28;20050;-94
2023/01/12 13:35:43;;;;;;;10.18;1.85;;;11.70;99.90;;;;;;4979590;28;20041;-93
2023/01/12 13:38:44;;;;;;;8.45;1.73;;;11.70;99.90;;;;;;5010827;28;20059;-94
2023/01/12 13:41:13;;;;;;;10.18;2.15;;;11.70;99.90;;;;;;5075786;28;20051;-94
2023/01/12 13:43:49;;;;;;;5.72;1.55;;;11.70;99.90;;;;;;5082090;28;20469;-93
2023/01/12 13:46:19;;;;;;;11.93;2.35;;;11.70;99.90;;;;;;5079402;28;20039;-93
2023/01/12 13:48:54;;;;;;;8.32;1.70;;;11.70;99.90;;;;;;5079384;28;20075;-93
2023/01/12 13:51:35;;;;;;;10.23;2.08;;;11.70;99.90;;;;;;5079168;28;20039;-93
2023/01/12 13:54:04;;;;;;;6.50;1.35;;;11.60;99.90;;;;;;5095275;28;20049;-94
2023/01/12 13:56:31;;;;;;;12.45;3.40;;;11.60;99.90;;;;;;5103238;28;20040;-93